Time;durP1;ratioP1;P1;durP2;ratioP2;P2;SDS_P1;SDS_P2;PMS_P1;PMS_P2;Temp;Humidity;BMP_temperature;BMP_pressure;BME280_temperature;BME280_humidity;BME280_pressure;Samples;Min_cycle;Max_cycle;Signal;HPM_P1;HPM_P2
2022/03/23 04:00:47;;;;;;;2.20;2.10;;;8.60;57.00;;;;;;5909263;23;20376;-77
2022/03/23 04:03:14;;;;;;;2.13;2.03;;;8.60;56.90;;;;;;4919597;29;20433;-75
2022/03/23 04:05:41;;;;;;;2.03;1.93;;;8.70;56.90;;;;;;4919481;29;20506;-75
2022/03/23 04:08:08;;;;;;;2.17;2.07;;;8.60;56.80;;;;;;4919427;29;20504;-75
2022/03/23 04:10:35;;;;;;;2.10;2.00;;;8.60;56.90;;;;;;4919017;29;20974;-75
2022/03/23 04:13:02;;;;;;;1.70;1.60;;;8.60;57.00;;;;;;4919340;29;20452;-75
2022/03/23 04:15:29;;;;;;;2.50;2.40;;;8.50;57.20;;;;;;4920674;29;20453;-75
2022/03/23 04:17:57;;;;;;;2.30;2.10;;;8.50;57.20;;;;;;4919555;29;20500;-75
2022/03/23 04:20:24;;;;;;;2.23;2.13;;;8.50;57.30;;;;;;4918870;29;20952;-75
2022/03/23 04:22:51;;;;;;;2.27;2.17;;;8.40;57.50;;;;;;4919181;29;20485;-75
2022/03/23 04:25:19;;;;;;;1.93;1.83;;;8.40;57.40;;;;;;4919040;29;20484;-75
2022/03/23 04:27:46;;;;;;;1.80;1.70;;;8.30;57.40;;;;;;4919107;29;20452;-75
2022/03/23 04:30:14;;;;;;;2.27;2.17;;;8.30;57.70;;;;;;4918637;29;20452;-75
2022/03/23 04:32:42;;;;;;;2.10;2.00;;;8.20;58.00;;;;;;4918599;29;20923;-75
2022/03/23 04:35:10;;;;;;;2.40;2.30;;;8.20;58.20;;;;;;4918864;29;20453;-75
2022/03/23 04:37:37;;;;;;;2.20;2.10;;;8.10;58.30;;;;;;4918624;29;20836;-75
2022/03/23 04:40:05;;;;;;;2.00;1.90;;;8.20;58.30;;;;;;4918853;29;20449;-75
2022/03/23 04:42:31;;;;;;;2.20;2.10;;;8.20;58.30;;;;;;4918708;29;20488;-75
2022/03/23 04:44:58;;;;;;;2.20;2.10;;;8.10;58.50;;;;;;4918717;29;20551;-75
2022/03/23 04:47:25;;;;;;;1.97;1.87;;;8.10;58.60;;;;;;4918725;29;20512;-75
2022/03/23 04:49:51;;;;;;;2.00;1.90;;;8.10;58.70;;;;;;4918533;29;20945;-77
2022/03/23 04:52:20;;;;;;;2.23;2.13;;;8.00;58.80;;;;;;4918745;29;20818;-77
2022/03/23 04:54:48;;;;;;;1.63;1.53;;;8.00;58.90;;;;;;4918821;29;20449;-77
2022/03/23 04:57:14;;;;;;;2.37;2.27;;;8.00;59.10;;;;;;4917447;29;20944;-77
2022/03/23 04:59:41;;;;;;;2.40;2.30;;;7.90;59.40;;;;;;4918518;29;20449;-77
2022/03/23 05:02:07;;;;;;;2.03;1.93;;;7.90;59.70;;;;;;4918323;29;20496;-77
2022/03/23 05:04:34;;;;;;;2.17;2.07;;;7.90;59.90;;;;;;4918528;29;20464;-77
2022/03/23 05:07:01;;;;;;;2.53;2.43;;;7.90;60.00;;;;;;4918438;29;20471;-77
2022/03/23 05:09:29;;;;;;;2.23;2.13;;;7.90;59.70;;;;;;4918104;29;20522;-77
2022/03/23 05:11:56;;;;;;;2.10;2.00;;;7.90;59.60;;;;;;4918320;29;20472;-77
2022/03/23 05:14:22;;;;;;;2.17;2.07;;;7.80;59.80;;;;;;4918517;29;20500;-78
2022/03/23 05:16:49;;;;;;;2.60;2.40;;;7.80;59.70;;;;;;4920109;29;20452;-77
2022/03/23 05:19:16;;;;;;;2.30;2.20;;;7.80;59.60;;;;;;4919711;29;20453;-77
2022/03/23 05:21:43;;;;;;;2.27;2.17;;;7.80;59.80;;;;;;4919542;29;20492;-77
2022/03/23 05:24:09;;;;;;;2.40;2.30;;;7.80;59.90;;;;;;4919750;29;20465;-77
2022/03/23 05:26:37;;;;;;;1.90;1.80;;;7.70;60.00;;;;;;4919573;29;20449;-80
2022/03/23 05:29:04;;;;;;;2.20;2.10;;;7.70;60.30;;;;;;4919213;29;20868;-77
2022/03/23 05:31:31;;;;;;;1.80;1.70;;;7.70;60.10;;;;;;4919366;29;20472;-77
2022/03/23 05:33:58;;;;;;;2.17;2.07;;;7.60;60.30;;;;;;4920063;29;20457;-77
2022/03/23 05:36:25;;;;;;;2.00;1.90;;;7.60;60.50;;;;;;4919284;29;20461;-77
2022/03/23 05:38:51;;;;;;;2.10;2.00;;;7.70;60.60;;;;;;4919259;29;20453;-77
2022/03/23 05:41:18;;;;;;;1.93;1.83;;;7.80;60.10;;;;;;4919681;29;20479;-77
2022/03/23 05:43:46;;;;;;;2.30;2.20;;;8.00;59.50;;;;;;4919315;29;20481;-77
2022/03/23 05:46:13;;;;;;;2.10;2.00;;;8.20;59.20;;;;;;4919216;29;20465;-78
2022/03/23 05:48:40;;;;;;;2.23;2.13;;;8.30;59.10;;;;;;4919380;29;20469;-77
2022/03/23 05:51:07;;;;;;;2.83;2.63;;;8.50;59.00;;;;;;4919063;29;20897;-77
2022/03/23 05:53:36;;;;;;;2.13;2.03;;;8.90;58.70;;;;;;4918823;29;20491;-77
2022/03/23 05:56:03;;;;;;;2.23;2.13;;;9.50;57.30;;;;;;4919463;29;20457;-77
2022/03/23 05:58:30;;;;;;;1.87;1.77;;;10.20;55.60;;;;;;4919191;29;20457;-77
2022/03/23 06:00:58;;;;;;;2.00;1.90;;;10.90;53.90;;;;;;4919231;29;20576;-77
2022/03/23 06:03:25;;;;;;;1.90;1.80;;;11.70;52.10;;;;;;4920209;29;20480;-78
2022/03/23 06:05:52;;;;;;;1.80;1.70;;;12.50;50.40;;;;;;4918813;29;20940;-77
2022/03/23 06:08:18;;;;;;;2.00;1.90;;;13.30;49.50;;;;;;4919300;29;20464;-77
2022/03/23 06:10:45;;;;;;;1.70;1.60;;;14.00;47.70;;;;;;4921101;29;20536;-77
2022/03/23 06:13:12;;;;;;;1.90;1.80;;;14.70;46.80;;;;;;4924972;29;20530;-77
2022/03/23 06:15:39;;;;;;;2.03;1.93;;;15.40;45.20;;;;;;4923945;29;20480;-76
2022/03/23 06:18:08;;;;;;;1.70;1.60;;;16.10;44.30;;;;;;4925890;29;20952;-77
2022/03/23 06:20:34;;;;;;;2.00;1.90;;;16.80;43.30;;;;;;4925141;29;20460;-77
2022/03/23 06:23:02;;;;;;;1.70;1.60;;;17.30;42.10;;;;;;4917989;29;20492;-76
2022/03/23 06:25:28;;;;;;;2.00;1.90;;;17.80;41.40;;;;;;4917151;29;20556;-77
2022/03/23 06:27:55;;;;;;;2.00;1.90;;;18.30;41.10;;;;;;4917264;29;20460;-77
2022/03/23 06:30:22;;;;;;;1.70;1.60;;;19.00;40.20;;;;;;4916892;29;20496;-77
2022/03/23 06:32:48;;;;;;;1.93;1.83;;;19.60;39.10;;;;;;4917100;29;20453;-76
2022/03/23 06:35:17;;;;;;;2.20;2.10;;;20.20;38.30;;;;;;4917224;29;20523;-77
2022/03/23 06:37:44;;;;;;;2.07;1.97;;;20.90;37.40;;;;;;4917117;29;20464;-77
2022/03/23 06:40:12;;;;;;;1.80;1.70;;;21.50;36.50;;;;;;4917181;29;20469;-76
2022/03/23 06:42:38;;;;;;;1.90;1.80;;;22.10;35.80;;;;;;4916902;29;20488;-77
2022/03/23 06:45:06;;;;;;;1.90;1.80;;;22.60;35.50;;;;;;4917121;29;20463;-77
2022/03/23 06:47:33;;;;;;;1.80;1.70;;;23.20;34.90;;;;;;4917965;29;20460;-77
2022/03/23 06:49:59;;;;;;;1.70;1.60;;;23.80;34.60;;;;;;4917024;29;20524;-77
2022/03/23 06:52:27;;;;;;;1.97;1.70;;;24.50;34.50;;;;;;4916889;29;20472;-76
2022/03/23 06:54:54;;;;;;;1.57;1.47;;;25.20;33.30;;;;;;4916806;29;20960;-77
2022/03/23 06:57:20;;;;;;;1.60;1.50;;;25.80;31.80;;;;;;4917143;29;20453;-77
2022/03/23 06:59:47;;;;;;;1.80;1.70;;;26.40;31.80;;;;;;4916723;29;20496;-77
2022/03/23 07:02:14;;;;;;;1.60;1.50;;;26.90;31.10;;;;;;4916433;29;20500;-77
2022/03/23 07:04:40;;;;;;;1.63;1.53;;;27.30;30.50;;;;;;4917229;29;20512;-77
2022/03/23 07:07:07;;;;;;;1.80;1.70;;;27.10;30.10;;;;;;4917144;29;20459;-77
2022/03/23 07:09:38;;;;;;;1.90;1.80;;;26.60;30.10;;;;;;4916855;29;20515;-77
2022/03/23 07:12:07;;;;;;;1.50;1.40;;;26.10;31.10;;;;;;4917103;29;20524;-77
2022/03/23 07:14:36;;;;;;;1.63;1.53;;;25.90;31.20;;;;;;4917086;29;20453;-77
2022/03/23 07:17:03;;;;;;;1.50;1.40;;;26.00;30.90;;;;;;4917101;29;20456;-77
2022/03/23 07:19:30;;;;;;;1.90;1.80;;;26.60;30.40;;;;;;4917313;29;20456;-77
2022/03/23 07:21:57;;;;;;;1.80;1.70;;;26.90;30.20;;;;;;4920586;29;20547;-77
2022/03/23 07:24:25;;;;;;;2.07;1.97;;;26.40;30.20;;;;;;4920637;29;20504;-77
2022/03/23 07:26:53;;;;;;;1.93;1.83;;;25.00;31.00;;;;;;4920414;29;20457;-77
2022/03/23 07:29:19;;;;;;;2.10;1.90;;;23.40;33.00;;;;;;4920282;29;20449;-77
2022/03/23 07:31:46;;;;;;;1.60;1.50;;;22.10;34.50;;;;;;4919798;29;20955;-76
2022/03/23 07:34:18;;;;;;;1.93;1.80;;;21.30;35.80;;;;;;4919800;29;20456;-76
2022/03/23 07:36:45;;;;;;;2.13;2.03;;;20.80;37.40;;;;;;4920254;29;20803;-77
2022/03/23 07:39:15;;;;;;;2.60;2.50;;;20.10;38.40;;;;;;4920209;29;20459;-77
2022/03/23 07:41:42;;;;;;;2.10;2.00;;;19.50;39.70;;;;;;4919836;29;20567;-77
2022/03/23 07:44:10;;;;;;;2.90;2.70;;;18.60;41.00;;;;;;4920012;29;20539;-77
2022/03/23 07:46:36;;;;;;;2.23;2.13;;;17.40;42.70;;;;;;4920005;29;20504;-77
2022/03/23 07:49:03;;;;;;;2.50;2.40;;;16.70;43.60;;;;;;4919661;29;20447;-77
2022/03/23 07:51:30;;;;;;;2.93;2.83;;;15.90;45.20;;;;;;4919812;29;20472;-77
2022/03/23 07:53:56;;;;;;;2.83;2.73;;;15.60;46.70;;;;;;4919799;29;20453;-77
2022/03/23 07:56:23;;;;;;;2.60;2.50;;;15.50;46.80;;;;;;4919413;29;20874;-77
2022/03/23 07:58:50;;;;;;;2.37;2.27;;;15.20;47.20;;;;;;4919755;29;20460;-77
2022/03/23 08:01:18;;;;;;;2.37;2.27;;;15.20;48.00;;;;;;4919265;29;20915;-77
2022/03/23 08:03:44;;;;;;;2.50;2.30;;;15.20;47.90;;;;;;4919315;29;21075;-77
2022/03/23 08:06:12;;;;;;;2.30;2.17;;;15.10;48.30;;;;;;4919363;29;20944;-77
2022/03/23 08:08:38;;;;;;;2.23;2.13;;;15.10;47.90;;;;;;4919583;29;20484;-77
2022/03/23 08:11:05;;;;;;;2.30;2.20;;;14.80;48.00;;;;;;4919420;29;20504;-77
2022/03/23 08:13:32;;;;;;;2.33;2.23;;;14.40;48.90;;;;;;4919525;29;20457;-77
2022/03/23 08:16:00;;;;;;;2.40;2.30;;;14.50;49.50;;;;;;4919383;29;20941;-77
2022/03/23 08:18:28;;;;;;;2.17;2.07;;;14.70;49.40;;;;;;4920915;29;20936;-77
2022/03/23 08:20:55;;;;;;;2.13;2.03;;;15.30;48.60;;;;;;4920624;29;20523;-77
2022/03/23 08:23:22;;;;;;;2.20;2.10;;;15.50;47.70;;;;;;4920058;29;20485;-77
2022/03/23 08:25:49;;;;;;;2.47;2.33;;;15.60;47.90;;;;;;4920267;29;20460;-77
2022/03/23 08:28:15;;;;;;;2.77;2.27;;;15.20;47.90;;;;;;4920124;29;20456;-77
2022/03/23 08:30:43;;;;;;;2.37;2.10;;;15.20;48.50;;;;;;4919381;29;20937;-78
2022/03/23 08:33:09;;;;;;;2.20;2.10;;;15.30;48.80;;;;;;4920159;29;20452;-77
2022/03/23 08:35:39;;;;;;;1.83;1.73;;;15.10;48.70;;;;;;4919789;29;20453;-77
2022/03/23 08:38:06;;;;;;;2.63;1.90;;;15.10;48.30;;;;;;4925007;29;20464;-76
2022/03/23 08:40:33;;;;;;;1.83;1.73;;;15.10;48.30;;;;;;4937593;29;20449;-77
2022/03/23 08:43:00;;;;;;;2.10;2.00;;;15.40;48.30;;;;;;4943022;29;20523;-78
2022/03/23 08:45:27;;;;;;;2.40;2.17;;;15.40;47.20;;;;;;4936261;28;20509;-77
2022/03/23 08:47:54;;;;;;;2.20;2.10;;;15.50;47.10;;;;;;4927741;29;20508;-77
2022/03/23 08:50:21;;;;;;;1.97;1.87;;;15.40;46.90;;;;;;4920390;29;20459;-77
2022/03/23 08:52:49;;;;;;;1.90;1.80;;;15.40;46.80;;;;;;4919678;29;20475;-78
2022/03/23 08:55:19;;;;;;;1.90;1.80;;;15.40;45.90;;;;;;4919581;29;20872;-77
2022/03/23 08:57:46;;;;;;;1.73;1.63;;;15.40;46.40;;;;;;4919868;29;20448;-77
2022/03/23 09:00:13;;;;;;;1.90;1.80;;;15.50;44.10;;;;;;4919159;29;20453;-77
2022/03/23 09:02:40;;;;;;;1.77;1.67;;;15.50;43.20;;;;;;4918597;29;20488;-77
2022/03/23 09:05:11;;;;;;;1.77;1.67;;;15.60;41.90;;;;;;4918681;29;20452;-77
2022/03/23 09:07:38;;;;;;;1.60;1.50;;;16.00;43.00;;;;;;4918588;29;20444;-78
2022/03/23 09:10:07;;;;;;;1.63;1.53;;;16.30;40.30;;;;;;4918710;29;20516;-77
2022/03/23 09:12:34;;;;;;;1.33;1.23;;;16.30;38.80;;;;;;4918752;29;20473;-77
2022/03/23 09:15:01;;;;;;;1.20;1.10;;;16.50;38.00;;;;;;4918723;29;20457;-78
2022/03/23 09:17:28;;;;;;;1.20;1.10;;;16.30;34.90;;;;;;4918444;29;20872;-77
2022/03/23 09:19:55;;;;;;;1.50;1.40;;;15.90;36.40;;;;;;4918407;29;20453;-77
2022/03/23 09:22:22;;;;;;;1.70;1.60;;;15.80;37.50;;;;;;4918136;29;20481;-77
2022/03/23 09:24:50;;;;;;;1.30;1.20;;;15.70;38.40;;;;;;4920519;29;20456;-77
2022/03/23 09:27:18;;;;;;;1.30;1.20;;;15.60;38.40;;;;;;4921112;29;20448;-77
2022/03/23 09:29:45;;;;;;;2.50;1.30;;;15.70;38.60;;;;;;4917915;29;20949;-77
2022/03/23 09:32:12;;;;;;;1.40;1.30;;;15.90;39.30;;;;;;4918052;29;20555;-77
2022/03/23 09:34:40;;;;;;;1.70;1.60;;;16.20;39.50;;;;;;4918044;29;20457;-77
2022/03/23 09:39:51;;;;;;;1.40;1.30;;;16.70;38.00;;;;;;4918216;29;20411;-77
2022/03/23 09:42:21;;;;;;;1.27;1.17;;;16.70;37.00;;;;;;4917308;29;20895;-77
2022/03/23 09:44:48;;;;;;;1.30;1.20;;;16.70;36.70;;;;;;4917490;29;20543;-77
2022/03/23 09:47:15;;;;;;;1.37;1.27;;;17.00;38.60;;;;;;4917728;29;20453;-77
2022/03/23 09:49:43;;;;;;;1.40;1.30;;;16.70;38.20;;;;;;4917821;29;20461;-77
2022/03/23 09:52:10;;;;;;;1.57;1.47;;;16.70;38.20;;;;;;4917807;29;20477;-77
2022/03/23 09:54:37;;;;;;;1.50;1.40;;;16.80;38.50;;;;;;4917692;29;20445;-77
2022/03/23 09:57:06;;;;;;;1.50;1.40;;;16.90;37.00;;;;;;4917509;29;20460;-77
2022/03/23 09:59:34;;;;;;;1.30;1.20;;;16.90;37.10;;;;;;4922243;29;20459;-77
2022/03/23 10:02:43;;;;;;;1.33;1.23;;;16.70;36.50;;;;;;4920643;29;20944;-77
2022/03/23 10:05:42;;;;;;;1.40;1.30;;;16.90;37.00;;;;;;4917461;29;20448;-77
2022/03/23 10:08:38;;;;;;;1.57;1.47;;;17.00;37.10;;;;;;4917871;29;20468;-77
2022/03/23 10:11:54;;;;;;;1.93;1.43;;;17.00;37.30;;;;;;4917395;29;20480;-77
2022/03/23 10:15:00;;;;;;;1.30;1.20;;;17.00;36.30;;;;;;5017796;23;20449;-74
2022/03/23 10:17:59;;;;;;;1.27;1.17;;;16.70;35.40;;;;;;4897500;29;20777;-74
2022/03/23 10:20:28;;;;;;;1.30;1.20;;;16.70;35.80;;;;;;4897292;29;21030;-74
2022/03/23 10:22:56;;;;;;;1.10;1.00;;;16.90;35.90;;;;;;4897935;29;20485;-73
2022/03/23 10:25:26;;;;;;;1.40;1.30;;;17.10;35.50;;;;;;4898081;29;20553;-73
2022/03/23 10:27:55;;;;;;;1.33;1.23;;;17.20;35.70;;;;;;4898014;29;20444;-73
2022/03/23 10:30:32;;;;;;;1.40;1.30;;;17.10;33.90;;;;;;4897597;29;20999;-73
2022/03/23 10:32:59;;;;;;;1.10;1.00;;;17.00;35.40;;;;;;4897987;29;20426;-74
2022/03/23 10:35:37;;;;;;;1.30;1.20;;;17.00;36.00;;;;;;4897552;29;20985;-74
2022/03/23 10:38:14;;;;;;;1.30;1.20;;;17.30;36.50;;;;;;4898081;29;20441;-74
2022/03/23 10:40:41;;;;;;;1.30;1.20;;;17.40;34.90;;;;;;4898027;29;20437;-73
2022/03/23 10:43:09;;;;;;;1.20;1.10;;;17.50;36.00;;;;;;4897875;29;20489;-72
2022/03/23 10:45:36;;;;;;;1.47;1.10;;;17.70;34.70;;;;;;4897871;29;20557;-73
2022/03/23 10:48:10;;;;;;;1.30;1.20;;;17.40;34.90;;;;;;4897918;29;20514;-72
2022/03/23 10:50:50;;;;;;;1.33;1.23;;;17.50;35.00;;;;;;4897785;29;20481;-73
2022/03/23 10:53:17;;;;;;;1.10;1.00;;;17.50;36.60;;;;;;4897459;29;20989;-74
2022/03/23 10:55:49;;;;;;;1.00;0.90;;;17.50;35.70;;;;;;4901096;29;21100;-74
2022/03/23 10:58:25;;;;;;;1.10;1.00;;;17.70;35.70;;;;;;4901932;29;20496;-74
2022/03/23 11:00:56;;;;;;;1.10;1.00;;;17.80;34.20;;;;;;4901231;29;20803;-74
2022/03/23 11:03:37;;;;;;;2.23;1.30;;;18.00;34.40;;;;;;4901613;29;20569;-74
2022/03/23 11:06:06;;;;;;;1.37;1.10;;;18.10;35.00;;;;;;4901947;29;20822;-74
2022/03/23 11:08:33;;;;;;;1.27;1.17;;;17.90;34.10;;;;;;4901358;29;20540;-74
2022/03/23 11:16:38;;;;;;;1.30;1.20;;;18.50;33.70;;;;;;4884583;29;20913;-73
2022/03/23 11:19:14;;;;;;;1.20;1.10;;;18.90;32.80;;;;;;4901152;29;20452;-73
2022/03/23 11:21:58;;;;;;;1.30;1.20;;;19.00;33.00;;;;;;4901894;29;20469;-74
2022/03/23 11:24:25;;;;;;;1.70;1.60;;;18.80;32.40;;;;;;4899501;29;20492;-73
2022/03/23 11:26:52;;;;;;;1.50;1.40;;;18.70;33.90;;;;;;4901016;29;20465;-74
2022/03/23 11:29:19;;;;;;;1.50;1.40;;;18.60;33.20;;;;;;4900638;29;20548;-75
2022/03/23 11:31:46;;;;;;;1.30;1.20;;;18.50;32.80;;;;;;4900870;29;20445;-74
2022/03/23 11:34:15;;;;;;;1.50;1.33;;;18.60;33.30;;;;;;4900804;29;20505;-74
2022/03/23 11:36:42;;;;;;;1.30;1.20;;;18.50;32.20;;;;;;4900850;29;20524;-74
2022/03/23 11:39:11;;;;;;;1.50;1.20;;;18.60;32.50;;;;;;4900811;29;20501;-74
2022/03/23 11:41:41;;;;;;;1.20;1.10;;;18.70;32.80;;;;;;4900745;29;20512;-74
2022/03/23 11:44:09;;;;;;;1.10;1.00;;;18.80;32.50;;;;;;4900144;29;21007;-74
2022/03/23 11:46:36;;;;;;;1.40;1.30;;;18.80;32.10;;;;;;4900726;29;20453;-74
2022/03/23 11:49:12;;;;;;;1.20;1.10;;;19.10;32.80;;;;;;4900713;29;20505;-74
2022/03/23 11:51:50;;;;;;;1.60;1.50;;;19.30;29.90;;;;;;4900573;29;20437;-73
2022/03/23 11:54:27;;;;;;;1.57;1.20;;;19.50;31.80;;;;;;4900154;29;20993;-74
2022/03/23 11:56:57;;;;;;;1.13;1.03;;;20.00;30.80;;;;;;4900446;29;20442;-74
2022/03/23 11:59:25;;;;;;;1.20;1.10;;;20.40;28.30;;;;;;4900323;29;20463;-73
2022/03/23 12:01:53;;;;;;;1.13;1.03;;;20.60;28.80;;;;;;4900858;29;20517;-74
2022/03/23 12:04:21;;;;;;;1.10;0.90;;;20.80;28.40;;;;;;4902857;29;20493;-74
2022/03/23 12:06:57;;;;;;;1.10;0.93;;;21.00;26.60;;;;;;4902179;29;20817;-74
2022/03/23 12:09:34;;;;;;;1.00;0.90;;;21.10;25.80;;;;;;4902866;29;20539;-75
2022/03/23 12:12:01;;;;;;;1.17;1.07;;;21.30;26.10;;;;;;4903257;29;20449;-75
2022/03/23 12:14:30;;;;;;;1.10;1.00;;;21.40;26.30;;;;;;4902635;29;20465;-74
2022/03/23 12:17:17;;;;;;;1.20;1.10;;;21.60;27.30;;;;;;4902829;29;20437;-75
2022/03/23 12:20:03;;;;;;;1.10;1.00;;;21.90;27.10;;;;;;4902921;29;20825;-74
2022/03/23 12:22:57;;;;;;;0.90;0.80;;;22.10;25.40;;;;;;4903236;29;20450;-73
2022/03/23 12:25:31;;;;;;;1.10;1.00;;;22.10;26.70;;;;;;4902868;29;20501;-75
2022/03/23 12:28:16;;;;;;;0.97;0.87;;;22.00;26.40;;;;;;4902751;29;20934;-74
2022/03/23 12:31:01;;;;;;;1.00;0.90;;;22.00;26.10;;;;;;4903003;29;20445;-74
2022/03/23 12:33:29;;;;;;;1.10;1.00;;;21.50;25.50;;;;;;4902630;29;20438;-74
2022/03/23 12:36:00;;;;;;;1.13;1.03;;;21.50;26.20;;;;;;4902777;29;20485;-74
2022/03/23 12:38:29;;;;;;;1.20;1.10;;;21.60;25.90;;;;;;4901429;29;20941;-74
2022/03/23 12:41:02;;;;;;;1.17;1.07;;;21.80;26.30;;;;;;4901950;29;20457;-74
2022/03/23 12:43:37;;;;;;;1.50;1.40;;;21.60;26.00;;;;;;4902410;29;20437;-76
2022/03/23 12:46:05;;;;;;;1.20;1.10;;;21.40;26.80;;;;;;4901814;29;20540;-74
2022/03/23 12:59:37;;;;;;;1.00;0.90;;;22.10;26.80;;;;;;4899170;29;20418;-74
2022/03/23 13:02:31;;;;;;;1.30;1.20;;;22.40;25.70;;;;;;4899562;29;20453;-75
2022/03/23 13:04:59;;;;;;;1.73;0.90;;;22.20;23.60;;;;;;4899411;29;20497;-74
2022/03/23 13:07:42;;;;;;;1.03;0.93;;;22.20;24.50;;;;;;4900007;29;20453;-74
2022/03/23 13:10:12;;;;;;;0.80;0.80;;;22.30;24.70;;;;;;4899716;29;20831;-74
2022/03/23 13:12:41;;;;;;;1.10;1.00;;;22.60;25.50;;;;;;4899001;29;20532;-72
2022/03/23 13:15:13;;;;;;;1.20;1.10;;;22.80;24.40;;;;;;4898539;29;20494;-74
2022/03/23 13:17:41;;;;;;;0.90;0.80;;;23.00;22.80;;;;;;4897852;29;20938;-73
2022/03/23 13:20:10;;;;;;;1.03;0.93;;;23.20;24.20;;;;;;4898879;29;20456;-73
2022/03/23 13:22:39;;;;;;;0.90;0.90;;;23.50;24.20;;;;;;4898997;29;20449;-73
2022/03/23 13:25:08;;;;;;;2.90;1.00;;;23.80;23.80;;;;;;4899094;29;20501;-74
2022/03/23 13:27:36;;;;;;;1.20;1.10;;;23.90;24.30;;;;;;4898971;29;20456;-72
2022/03/23 13:30:07;;;;;;;1.40;1.00;;;24.10;24.10;;;;;;4898600;29;20489;-73
2022/03/23 13:32:36;;;;;;;1.00;0.90;;;24.10;23.60;;;;;;4898497;29;21012;-74
2022/03/23 13:35:03;;;;;;;1.30;1.20;;;24.20;23.40;;;;;;4898879;29;20476;-73
2022/03/23 13:37:31;;;;;;;1.20;1.10;;;24.20;24.40;;;;;;4898650;29;20458;-74
2022/03/23 13:39:58;;;;;;;1.00;0.90;;;23.70;23.40;;;;;;4898647;29;20548;-74
2022/03/23 13:45:11;;;;;;;1.10;1.00;;;23.70;25.10;;;;;;4898375;29;20549;-73
2022/03/23 13:47:40;;;;;;;1.10;1.00;;;24.00;25.00;;;;;;4898268;29;20957;-74
2022/03/23 13:50:09;;;;;;;1.60;1.20;;;24.10;24.10;;;;;;4898427;29;20454;-74
2022/03/23 13:52:37;;;;;;;1.20;1.10;;;24.00;23.80;;;;;;4899176;29;20492;-74
2022/03/23 13:55:05;;;;;;;1.13;1.03;;;24.00;23.80;;;;;;4899835;29;20508;-74
2022/03/23 13:57:32;;;;;;;1.27;1.10;;;23.90;24.20;;;;;;4898813;29;20453;-73
2022/03/23 13:59:59;;;;;;;1.27;1.10;;;23.90;23.40;;;;;;4898032;29;20946;-74
2022/03/23 14:02:28;;;;;;;1.20;1.10;;;24.10;24.00;;;;;;4897980;29;20458;-73
2022/03/23 14:04:55;;;;;;;1.10;1.00;;;23.90;24.40;;;;;;4897753;29;20522;-75
2022/03/23 14:07:25;;;;;;;1.20;1.10;;;24.10;24.40;;;;;;4898259;29;20884;-74
2022/03/23 14:09:53;;;;;;;1.00;0.90;;;24.30;24.40;;;;;;4898140;29;20441;-74
2022/03/23 14:12:20;;;;;;;1.23;1.13;;;24.20;24.50;;;;;;4897834;29;20869;-73
2022/03/23 14:14:47;;;;;;;1.30;1.20;;;24.20;24.20;;;;;;4897935;29;20478;-75
2022/03/23 14:17:18;;;;;;;1.17;1.07;;;24.50;24.40;;;;;;4898176;29;20437;-75
2022/03/23 14:19:48;;;;;;;1.17;1.07;;;25.00;23.40;;;;;;4897820;29;20441;-74
2022/03/23 14:22:16;;;;;;;0.80;0.80;;;25.40;23.00;;;;;;4897989;29;20485;-75
2022/03/23 14:24:44;;;;;;;1.00;0.90;;;25.90;23.20;;;;;;4898141;29;20549;-74
2022/03/23 14:27:17;;;;;;;1.00;0.90;;;27.00;22.70;;;;;;4898297;29;20526;-73
2022/03/23 14:30:09;;;;;;;0.80;0.80;;;28.30;22.00;;;;;;4898599;29;20886;-73
2022/03/23 14:32:37;;;;;;;1.10;1.00;;;30.00;20.00;;;;;;4897923;29;20986;-75
2022/03/23 14:35:07;;;;;;;1.10;1.00;;;30.90;19.70;;;;;;4897957;29;20462;-75
2022/03/23 14:37:35;;;;;;;1.07;0.97;;;31.80;20.20;;;;;;4897989;29;20498;-75
2022/03/23 14:40:18;;;;;;;1.10;1.00;;;33.50;19.40;;;;;;4897884;29;20453;-75
2022/03/23 14:42:45;;;;;;;1.13;1.03;;;34.40;18.40;;;;;;4898028;29;20489;-75
2022/03/23 14:45:28;;;;;;;1.13;1.03;;;35.20;18.10;;;;;;4897888;29;20541;-75
2022/03/23 14:47:55;;;;;;;1.00;0.90;;;35.60;17.80;;;;;;4897927;29;20527;-75
2022/03/23 14:50:23;;;;;;;1.10;1.00;;;36.20;17.80;;;;;;4898034;29;20449;-74
2022/03/23 14:52:50;;;;;;;1.20;1.10;;;36.60;17.80;;;;;;4897993;29;20706;-75
2022/03/23 14:55:17;;;;;;;1.00;0.90;;;37.10;17.60;;;;;;4897507;29;20560;-74
2022/03/23 14:57:44;;;;;;;1.20;1.10;;;37.10;17.40;;;;;;4897714;29;20957;-75
2022/03/23 15:00:12;;;;;;;1.20;0.90;;;36.50;17.30;;;;;;4897449;29;20461;-75
2022/03/23 15:02:39;;;;;;;1.00;0.90;;;36.10;17.70;;;;;;4897745;29;20452;-74
2022/03/23 15:13:15;;;;;;;1.10;1.00;;;36.40;17.60;;;;;;4897699;29;20585;-74
2022/03/23 15:13:24;;;;;;;1.00;0.90;;;36.10;17.70;;;;;;4897787;29;20432;-75
2022/03/23 15:15:50;;;;;;;1.53;0.93;;;35.70;17.40;;;;;;4897367;29;20477;-75
2022/03/23 15:18:17;;;;;;;1.13;1.03;;;35.40;17.50;;;;;;4897423;29;20453;-75
2022/03/23 15:20:45;;;;;;;1.73;1.10;;;35.30;17.70;;;;;;4897536;29;20512;-74
2022/03/23 15:23:13;;;;;;;1.00;0.90;;;34.80;17.60;;;;;;4897224;29;21039;-75
2022/03/23 15:25:40;;;;;;;1.00;0.90;;;34.30;17.90;;;;;;4897450;29;20490;-74
2022/03/23 15:28:07;;;;;;;1.27;1.17;;;33.40;18.50;;;;;;4897475;29;20536;-74
2022/03/23 15:30:34;;;;;;;1.20;1.10;;;32.40;19.10;;;;;;4897521;29;20454;-74
2022/03/23 15:33:01;;;;;;;1.10;1.00;;;31.20;19.60;;;;;;4897478;29;20457;-74
2022/03/23 15:35:28;;;;;;;1.10;1.00;;;30.00;20.40;;;;;;4897301;29;20560;-75
2022/03/23 15:37:55;;;;;;;1.10;1.00;;;28.70;21.40;;;;;;4897344;29;20543;-74
2022/03/23 15:40:25;;;;;;;1.43;1.10;;;27.50;21.50;;;;;;4897309;29;20537;-74
2022/03/23 15:43:05;;;;;;;1.10;1.00;;;26.30;22.40;;;;;;4900711;29;20453;-74
2022/03/23 15:45:32;;;;;;;1.03;0.93;;;25.50;23.20;;;;;;4900689;29;20496;-75
2022/03/23 15:47:58;;;;;;;1.10;1.00;;;25.00;24.30;;;;;;4900705;29;20454;-75
2022/03/23 15:50:25;;;;;;;1.20;1.10;;;24.50;23.90;;;;;;4900544;29;20498;-74
2022/03/23 15:52:53;;;;;;;1.20;1.10;;;23.60;24.90;;;;;;4900535;29;20511;-74
2022/03/23 15:55:20;;;;;;;1.10;1.00;;;23.30;25.80;;;;;;4900339;29;20522;-74
2022/03/23 15:57:48;;;;;;;1.23;1.13;;;22.80;25.80;;;;;;4900106;29;20828;-74
2022/03/23 16:00:16;;;;;;;1.30;1.20;;;22.10;25.80;;;;;;4900324;29;20607;-73
2022/03/23 16:02:43;;;;;;;1.20;1.10;;;21.90;26.90;;;;;;4900222;29;20457;-73
2022/03/23 16:05:10;;;;;;;1.10;1.00;;;21.80;26.80;;;;;;4900134;29;20485;-74
2022/03/23 16:07:37;;;;;;;1.50;1.40;;;21.70;27.40;;;;;;4900071;29;20487;-73
2022/03/23 16:10:04;;;;;;;1.60;1.30;;;21.60;27.90;;;;;;4899867;29;20457;-73
2022/03/23 16:12:31;;;;;;;1.17;1.07;;;21.50;27.40;;;;;;4899827;29;20946;-73
2022/03/23 16:14:59;;;;;;;1.50;1.40;;;21.60;27.80;;;;;;5018711;23;20467;-77
2022/03/23 16:17:26;;;;;;;1.40;1.30;;;21.60;27.70;;;;;;4919358;29;20429;-77
2022/03/23 16:19:53;;;;;;;1.20;1.10;;;21.40;27.30;;;;;;4919256;29;20452;-77
2022/03/23 16:22:20;;;;;;;1.40;1.30;;;21.40;28.00;;;;;;4919234;29;20504;-77
2022/03/23 16:24:46;;;;;;;1.30;1.10;;;21.30;27.80;;;;;;4919111;29;20488;-77
2022/03/23 16:27:15;;;;;;;1.10;1.00;;;21.30;28.40;;;;;;4919111;29;20508;-77
2022/03/23 16:29:42;;;;;;;1.40;1.30;;;21.20;28.10;;;;;;4918797;29;20945;-77
2022/03/23 16:32:10;;;;;;;1.10;1.00;;;21.10;28.00;;;;;;4918993;29;20453;-77
2022/03/23 16:34:37;;;;;;;1.30;1.20;;;20.90;27.80;;;;;;4918961;29;20449;-77
2022/03/23 16:37:04;;;;;;;1.20;1.00;;;20.80;28.20;;;;;;4918976;29;20452;-77
2022/03/23 16:39:31;;;;;;;1.10;1.00;;;20.80;28.20;;;;;;4918557;29;20844;-77
2022/03/23 16:41:58;;;;;;;1.20;1.10;;;20.80;28.40;;;;;;4920280;29;20460;-78
2022/03/23 16:44:24;;;;;;;1.30;1.20;;;20.80;28.20;;;;;;4920654;29;20449;-77
2022/03/23 16:46:51;;;;;;;1.00;0.90;;;20.60;28.80;;;;;;4918579;29;20448;-77
2022/03/23 16:49:20;;;;;;;1.23;0.90;;;20.60;28.80;;;;;;4918740;29;20500;-76
2022/03/23 16:51:47;;;;;;;1.20;1.10;;;20.60;28.60;;;;;;4918505;29;20461;-77
2022/03/23 16:54:17;;;;;;;1.40;1.30;;;20.50;28.50;;;;;;4918304;29;20972;-77
2022/03/23 16:56:45;;;;;;;1.47;1.37;;;20.40;28.50;;;;;;4918458;29;20482;-77
2022/03/23 16:59:13;;;;;;;1.13;1.03;;;20.30;29.00;;;;;;4918436;29;20452;-77
2022/03/23 17:01:41;;;;;;;1.23;1.13;;;20.40;29.20;;;;;;4918484;29;20508;-76
2022/03/23 17:12:29;;;;;;;1.20;1.10;;;20.10;29.10;;;;;;4918176;29;20433;-77
2022/03/23 17:14:57;;;;;;;1.50;1.20;;;20.10;29.10;;;;;;4918664;29;20512;-77
2022/03/23 17:17:25;;;;;;;1.13;1.03;;;20.10;29.50;;;;;;4918282;29;20493;-76
2022/03/23 17:19:54;;;;;;;1.30;1.20;;;20.00;29.30;;;;;;4918198;29;20453;-76
2022/03/23 17:22:23;;;;;;;1.20;1.10;;;19.80;29.30;;;;;;4917825;29;20495;-77
2022/03/23 17:24:50;;;;;;;1.23;0.90;;;19.70;29.60;;;;;;4917861;29;20925;-77
2022/03/23 17:27:17;;;;;;;1.13;1.03;;;19.60;29.90;;;;;;4918097;29;20457;-76
2022/03/23 17:29:43;;;;;;;1.20;1.10;;;19.60;29.90;;;;;;4917712;29;20822;-76
2022/03/23 17:32:11;;;;;;;1.07;0.97;;;19.50;30.00;;;;;;4918003;29;20487;-76
2022/03/23 17:34:38;;;;;;;1.20;1.10;;;19.50;30.20;;;;;;4917978;29;20457;-76